Main page
METAR-TAF:

METAR-TAF

Airports :

Eleusina, Greece

latitude: 38-04N, longitude: 023-33E, elevation: 44 m

Current weather observation

The report was made 26 minutes ago, at 09:20 UTC
Wind 13 kt from the North with gusts up to 23 kt
Temperature 34°C
Humidity 22%
Pressure 1011 hPa
Visibility 10 km or more
no clouds below 1500 m and no cumulonimbus

METAR: LGEL 200920Z 36013G23KT CAVOK 34/09 Q1011

Time: 12:46 (09:46 UTC)

Forecast

The report was made 4 hours and 46 minutes ago, at 05:00 UTC
Forecast valid from 20 at 06 UTC to 21 at 06 UTC
Wind 8 kt from the North
Visibility 10 km or more
Few clouds at a height of 2500 ft
Becoming
from 20 at 10 UTC to 20 at 12 UTC
Wind 10 kt from the South
Becoming
from 20 at 17 UTC to 20 at 19 UTC
Wind 8 kt from the North

TAF: LGEL 200500Z 2006/2106 35008KT 9999 FEW025 BECMG 2010/2012 17010KT BECMG 2017/2019 35008KT

Weather observations and forecasts of more than 4000 airports (METAR and TAF reports).

The available stations are represented by yellow and red dots on the map.

Hover mouse over dot to see the name of the station.

Then click to see weather observations and forecasts.

To change the map : click on the green buttons with a black cross to zoom in, on the green button with a dash to zoom out, or on the green arrows for adjacent maps.


METAR-TAF: